WEATHER DATA

YESTERDAY
Time Temp. Dewp. Hum. Wind dir Wind speed Wind gust Bar. 1h Prec. 24h Prec.
00:20 7.1 -4.1 43 74 0.6 0.8 1026.7 0.0000 0.0000
00:30 7 -4.2 43 54 0.3 0.8 1026.8 0.0000 0.0000
00:40 6.9 -4 44 236 0.3 0.6 1026.8 0.0000 0.0000
00:50 6.7 -4.1 44 30 0.3 0.6 1026.9 0.0000 0.0000
00:59 6.6 -4.2 44 90 0.3 1.1 1026.9 0.0000 0.0000
01:09 6.4 -4.4 44 73 0.6 1.1 1026.9 0.0000 0.0000
01:20 6.2 -4.3 45 72 0.6 1.1 1027 0.0000 0.0000
01:30 5.9 -4.5 45 75 0.6 1.7 1026.9 0.0000 0.0000
01:40 5.7 -4.7 45 74 0.6 1.7 1026.9 0.0000 0.0000
01:50 5.5 -4.9 45 71 0.6 1.7 1027 0.0000 0.0000
02:00 5.3 -4.8 46 90 0.3 0.8 1027 0.0000 0.0000
02:10 5.2 -4.8 46 72 0.6 1.1 1027 0.0000 0.0000
02:20 5 -5 46 73 0.6 1.1 1026.9 0.0000 0.0000
02:30 4.9 -4.8 47 60 0.3 0.8 1027 0.0000 0.0000
02:41 4.8 -4.9 47 49 0.3 0.8 1027 0.0000 0.0000
02:51 4.7 -5 47 90 0.3 1.1 1027 0.0000 0.0000
03:00 4.6 -5.1 47 75 0.6 1.1 1027 0.0000 0.0000
03:11 4.6 -4.8 48 74 0.6 1.7 1027.1 0.0000 0.0000
03:21 4.5 -4.9 48 90 0.6 1.1 1027.1 0.0000 0.0000
03:28 4.4 -5 48 90 0.6 1.1 1027.1 0.0000 0.0000
03:38 4.4 -5 48 90 0.6 1.9 1027.2 0.0000 0.0000
03:48 4.3 -5.1 48 90 0.6 1.7 1027.3 0.0000 0.0000
03:58 4.3 -5.1 48 90 0.6 1.1 1027.3 0.0000 0.0000
04:08 4.2 -5.2 48 90 0.6 1.1 1027.2 0.0000 0.0000
04:18 4.1 -5.2 48 77 0.8 1.7 1027 0.0000 0.0000
04:28 4 -5.3 48 90 0.6 1.9 1027.1 0.0000 0.0000
04:39 3.9 -5.4 48 90 0.8 2.5 1027.2 0.0000 0.0000
04:49 3.8 -5.3 49 78 0.8 1.9 1027.2 0.0000 0.0000
04:58 3.7 -5.3 49 81 1.1 2.5 1027.2 0.0000 0.0000
05:09 3.7 -5.3 49 82 1.1 2.2 1027.2 0.0000 0.0000
05:19 3.6 -5.4 49 90 0.8 2.5 1027.1 0.0000 0.0000
05:29 3.5 -5.5 49 90 1.1 2.5 1027.1 0.0000 0.0000
05:39 3.4 -5.6 49 90 0.8 1.9 1027.2 0.0000 0.0000
05:50 3.4 -5.6 49 90 0.8 2.5 1027.3 0.0000 0.0000
05:59 3.3 -5.4 50 90 0.8 2.2 1027.3 0.0000 0.0000
06:09 3.2 -5.5 50 79 0.8 1.9 1027.4 0.0000 0.0000
06:19 3.1 -5.6 50 90 0.8 1.9 1027.5 0.0000 0.0000
06:30 3 -5.7 50 90 0.8 3.6 1027.6 0.0000 0.0000
06:40 2.9 -5.8 50 90 0.8 2.2 1027.7 0.0000 0.0000
06:49 2.9 -5.8 50 90 1.1 3.1 1027.8 0.0000 0.0000
07:00 2.8 -5.6 51 83 1.7 3.3 1027.9 0.0000 0.0000
07:10 2.8 -5.6 51 79 1.1 3.1 1028 0.0000 0.0000
07:19 3 -5.4 51 82 1.1 2.8 1028.1 0.0000 0.0000
07:30 3.7 -4.6 52 90 1.1 3.1 1028.2 0.0000 0.0000
07:40 4.3 -3.9 53 90 1.7 3.1 1028.3 0.0000 0.0000
07:50 4.6 -3.7 53 90 1.7 3.6 1028.3 0.0000 0.0000
07:59 4.6 -3.9 52 81 1.7 2.5 1028.4 0.0000 0.0000
08:10 4.4 -4.3 51 90 1.1 2.8 1028.5 0.0000 0.0000
08:20 4.4 -4.3 51 90 1.7 3.3 1028.5 0.0000 0.0000
08:30 5.2 -3.4 52 90 1.1 2.8 1028.5 0.0000 0.0000
08:40 5.9 -2.8 52 90 1.1 2.8 1028.5 0.0000 0.0000
08:50 6.6 -2.3 52 81 1.1 3.1 1028.6 0.0000 0.0000
09:00 7.1 -1.8 52 90 1.7 3.3 1028.5 0.0000 0.0000
09:10 7.6 -1.7 51 90 1.1 3.1 1028.4 0.0000 0.0000
09:20 8.2 -1.2 51 90 1.1 3.1 1028.3 0.0000 0.0000
09:30 8.8 -0.7 51 90 1.1 2.5 1028.3 0.0000 0.0000
09:40 9.5 -0.1 51 90 1.1 2.8 1028.3 0.0000 0.0000
09:51 10.1 0.2 50 90 0.8 3.1 1028.1 0.0000 0.0000
10:00 10.8 0.8 50 102 1.1 3.1 1028 0.0000 0.0000
10:10 11.4 1.1 49 90 1.1 4.2 1028.1 0.0000 0.0000
10:20 11.8 1.2 48 90 1.1 2.5 1028.1 0.0000 0.0000
10:31 12.3 1.3 47 90 1.7 4.4 1028 0.0000 0.0000
10:40 12.6 1.3 46 101 1.1 4.2 1028 0.0000 0.0000
10:50 12.9 1.3 45 90 1.1 3.3 1028 0.0000 0.0000
11:01 13.4 1.7 45 90 0.8 3.1 1027.9 0.0000 0.0000
11:10 13.7 1.7 44 90 0.8 2.2 1027.9 0.0000 0.0000
11:20 14.1 1.7 43 90 1.1 4.4 1027.8 0.0000 0.0000
11:31 14.3 1.6 42 77 1.1 4.2 1027.8 0.0000 0.0000
11:41 14.7 1.9 42 180 1.1 2.5 1027.7 0.0000 0.0000
11:50 14.8 1.7 41 127 0.8 2.5 1027.7 0.0000 0.0000
12:00 15 1.5 40 103 0.8 2.8 1027.5 0.0000 0.0000
12:12 15.1 1.3 39 90 1.7 4.2 1027.3 0.0000 0.0000
12:21 15.2 1.4 39 90 1.1 5 1027.3 0.0000 0.0000
12:31 15.5 1.6 39 90 0.8 2.8 1027.1 0.0000 0.0000
12:41 15.6 1.3 38 113 0.8 3.1 1027 0.0000 0.0000
12:52 15.7 1.4 38 100 1.1 3.3 1026.9 0.0000 0.0000
13:01 16 1.7 38 90 1.1 4.2 1026.8 0.0000 0.0000
13:11 16 1.3 37 98 1.1 3.6 1026.7 0.0000 0.0000
13:22 16.1 1.4 37 90 0.8 2.2 1026.6 0.0000 0.0000
13:32 16.4 1.7 37 109 0.8 3.3 1026.7 0.0000 0.0000
13:42 16.3 1.2 36 90 1.1 3.3 1026.6 0.0000 0.0000
13:52 16.5 1.4 36 117 1.1 4.2 1026.4 0.0000 0.0000
14:02 16.4 0.9 35 90 0.8 2.8 1026.4 0.0000 0.0000
14:12 16.4 0.9 35 79 1.7 3.6 1026.3 0.0000 0.0000
14:22 16.5 1 35 79 1.1 2.8 1026.2 0.0000 0.0000
14:33 16.4 0.5 34 90 0.8 3.1 1026.1 0.0000 0.0000
14:42 16.4 0.5 34 90 1.7 4.4 1025.9 0.0000 0.0000
14:52 16.3 0.4 34 84 1.7 3.3 1025.9 0.0000 0.0000
15:02 16.3 0 33 81 1.9 4.2 1025.7 0.0000 0.0000
15:13 16.4 0.1 33 90 1.7 3.6 1025.6 0.0000 0.0000
15:23 16.5 0.2 33 83 1.7 3.6 1025.4 0.0000 0.0000
15:32 16.4 0.1 33 77 1.7 4.4 1025.3 0.0000 0.0000
15:43 16.4 0.1 33 90 1.7 3.3 1025.2 0.0000 0.0000
15:53 16.3 0 33 90 1.1 3.6 1025.1 0.0000 0.0000
16:03 16.3 -0.4 32 90 1.1 4.4 1024.9 0.0000 0.0000
16:13 16.2 -0.4 32 80 1.1 3.1 1024.9 0.0000 0.0000
16:23 16.2 -0.4 32 90 0.8 2.8 1024.9 0.0000 0.0000
16:33 16.1 -0.5 32 77 1.7 4.4 1024.7 0.0000 0.0000
16:43 15.9 -1.1 31 80 0.8 4.2 1024.7 0.0000 0.0000
16:54 15.9 -1.1 31 79 1.1 4.2 1024.5 0.0000 0.0000
17:03 15.8 -1.1 31 90 1.1 4.2 1024.3 0.0000 0.0000
17:13 15.8 -1.1 31 90 1.1 3.6 1024.2 0.0000 0.0000
17:23 15.7 -1.2 31 90 1.1 4.4 1024 0.0000 0.0000
17:34 15.7 -0.8 32 81 1.1 2.8 1023.9 0.0000 0.0000
17:43 15.6 -0.9 32 90 0.8 4.2 1023.9 0.0000 0.0000
17:53 15.5 -1 32 76 0.8 3.6 1023.8 0.0000 0.0000
18:04 15.4 -1.1 32 75 0.8 2.8 1023.6 0.0000 0.0000
18:14 15.4 -1.1 32 90 1.1 3.1 1023.6 0.0000 0.0000
18:23 15.3 -1.1 32 74 0.8 3.3 1023.5 0.0000 0.0000
18:33 15.2 -1.2 32 67 0.8 3.1 1023.5 0.0000 0.0000
18:44 15 -1.4 32 61 0.8 3.3 1023.4 0.0000 0.0000
18:54 14.9 -1.1 33 69 0.8 2.8 1023.4 0.0000 0.0000
19:04 14.8 -1.2 33 128 0.8 2.5 1023.4 0.0000 0.0000
19:14 14.6 -1.3 33 59 0.6 1.9 1023.4 0.0000 0.0000
19:24 14.4 -1.5 33 66 0.6 2.2 1023.3 0.0000 0.0000
19:34 14.2 -1.6 33 90 0.6 2.2 1023.3 0.0000 0.0000
19:44 13.9 -1.5 34 90 0.6 2.2 1023.3 0.0000 0.0000
19:54 13.7 -1.6 34 90 0.6 2.2 1023.3 0.0000 0.0000
20:04 13.4 -1.9 34 90 0.6 1.7 1023.4 0.0000 0.0000
20:14 13.1 -1.8 35 90 0.6 1.9 1023.4 0.0000 0.0000
20:25 12.8 -2 35 90 0.6 1.9 1023.5 0.0000 0.0000
20:35 12.5 -2.2 35 90 0.8 1.9 1023.4 0.0000 0.0000
20:44 12.3 -2.4 35 90 0.8 1.9 1023.4 0.0000 0.0000
20:54 12.1 -2.2 36 90 0.6 1.9 1023.4 0.0000 0.0000
21:05 11.8 -2.5 36 90 0.8 2.2 1023.5 0.0000 0.0000
21:15 11.6 -2.6 36 90 0.8 3.1 1023.4 0.0000 0.0000
21:25 11.3 -2.8 36 90 0.8 2.2 1023.3 0.0000 0.0000
21:35 11.1 -2.7 37 90 0.8 2.5 1023.2 0.0000 0.0000
21:45 10.9 -2.8 37 90 0.8 2.2 1023.1 0.0000 0.0000
21:55 10.8 -2.9 37 90 0.8 2.2 1023.1 0.0000 0.0000
22:05 10.7 -3 37 90 0.8 2.2 1023.1 0.0000 0.0000
22:16 10.6 -2.8 38 90 1.1 3.1 1023 0.0000 0.0000
22:25 10.5 -2.8 38 90 1.1 3.3 1023 0.0000 0.0000
22:35 10.3 -3 38 90 0.8 1.9 1022.9 0.0000 0.0000
22:46 10.2 -3.1 38 90 1.1 2.8 1022.9 0.0000 0.0000
22:56 10.2 -2.8 39 90 0.8 2.8 1022.8 0.0000 0.0000
23:06 10 -2.9 39 90 0.8 2.8 1022.7 0.0000 0.0000
23:15 9.9 -3 39 90 1.1 3.1 1022.6 0.0000 0.0000
23:26 9.7 -3.2 39 90 0.8 2.2 1022.5 0.0000 0.0000
23:36 9.5 -3.3 39 90 0.8 2.5 1022.5 0.0000 0.0000
23:46 9.4 -3.4 39 90 1.1 3.1 1022.5 0.0000 0.0000
23:56 9.3 -3.5 39 98 1.1 2.8 1022.4 0.0000

DAY STATISTIC

2020-04-05
TEMPERATURE
AVERAGE
10.3
HIGH
16.5
13:52
LOW
2.8
07:00
PRESSURE
AVERAGE
1026.0
HIGH
1028.6
08:50
LOW
1022.4
23:56
DEWPOINT
AVERAGE
-2.2
HIGH
1.9
11:41
LOW
-5.8
06:40
HUMIDITY
AVERAGE
41
HIGH
53
07:40
LOW
31
16:43
WIND SPEED
AVERAGE
0.9
HIGH
1.9
15:02
WIND GUST
AVERAGE
2.7
HIGH
5.0
12:21
WIND DIRECTION
PREVAILING
E
90.1%
N
0.0
NE
5.6
E
90.1
SE
2.8
S
0.7
SW
0.7
W
0.0
NW
0.0
PRECIPITATION
RAIN HOUR
0.0
RAIN DAY
0.0
TEMPERATURE (°C)
LOW
2.8
HIGH
16.5
AVERAGE
10.3
PRESSURE (hpa)
LOW
1022.4
HIGH
1028.6
AVERAGE
1026.0
DEVICE